createdAt,value
2018-01-05T18:48:23.851Z,69.07
2018-01-05T18:49:23.789Z,68.49
2018-01-05T18:50:40.627Z,68.49
2018-01-05T18:51:40.619Z,68.68
2018-01-05T18:53:33.870Z,67.71
2018-01-05T18:54:33.694Z,67.04
2018-01-05T18:56:26.676Z,67.62
2018-01-05T18:57:26.629Z,67.91
2018-01-05T18:59:19.468Z,67.62
2018-01-05T19:00:19.427Z,67.71
2018-01-05T19:02:12.660Z,67.52
2018-01-05T19:08:37.428Z,67.43
2018-01-05T19:09:37.344Z,67.43
2018-01-05T19:11:30.511Z,66.27
2018-01-05T19:12:30.445Z,66.20
2018-01-05T19:14:23.440Z,65.50
2018-01-05T19:15:23.387Z,65.91
2018-01-05T19:17:16.398Z,65.53
2018-01-05T19:18:58.189Z,65.50
2018-01-05T19:21:27.413Z,66.43
2018-01-05T19:22:27.384Z,67.36
2018-01-05T19:24:20.317Z,68.61
2018-01-05T19:25:20.297Z,69.09
2018-01-05T19:27:13.267Z,68.90
2018-01-05T19:28:13.218Z,68.99
2018-01-05T19:30:06.096Z,69.06
2018-01-05T19:31:06.044Z,69.45
2018-01-05T19:32:59.032Z,69.25
2018-01-05T19:33:58.995Z,69.73
2018-01-05T19:35:53.916Z,69.83
2018-01-05T19:36:51.945Z,69.83
2018-01-05T19:38:44.768Z,70.02
2018-01-05T19:39:44.761Z,69.93
2018-01-05T19:41:37.581Z,70.31
2018-01-05T19:42:37.546Z,70.31
2018-01-05T19:44:30.498Z,70.02
2018-01-05T19:45:30.481Z,70.12
2018-01-05T19:47:23.479Z,70.12
2018-01-05T19:48:23.423Z,70.60
2018-01-05T19:50:16.646Z,70.60
2018-01-05T19:51:16.498Z,70.60
2018-01-05T19:53:09.483Z,70.70
2018-01-05T19:54:09.465Z,70.70
2018-01-05T19:56:02.813Z,70.70
2018-01-05T19:57:02.674Z,70.60
2018-01-05T19:58:55.649Z,70.70
2018-01-05T19:59:55.599Z,70.98
2018-01-05T20:01:48.597Z,71.28
2018-01-05T20:02:48.526Z,70.31
2018-01-05T20:04:41.684Z,71.18
2018-01-05T20:05:41.663Z,71.18
2018-01-05T20:07:34.664Z,71.28
2018-01-05T20:08:34.612Z,71.47
2018-01-05T20:10:27.418Z,71.37
2018-01-05T20:11:27.384Z,71.56
2018-01-05T20:13:20.561Z,71.37
2018-01-05T20:14:20.499Z,71.18
2018-01-05T20:16:13.483Z,71.37
2018-01-05T20:17:13.439Z,71.28
2018-01-05T20:19:06.460Z,71.37
2018-01-05T20:20:06.389Z,71.37
2018-01-05T20:21:59.223Z,71.37
2018-01-05T20:22:59.189Z,71.37
2018-01-05T20:24:52.190Z,71.18
2018-01-05T20:25:52.117Z,71.76
2018-01-05T20:27:45.078Z,71.28
2018-01-05T20:28:45.064Z,71.18
2018-01-05T20:30:38.306Z,71.18
2018-01-05T20:31:38.206Z,71.47
2018-01-05T20:33:31.178Z,71.56
2018-01-05T20:34:31.113Z,71.18
2018-01-05T20:36:24.090Z,71.37
2018-01-05T20:37:24.055Z,71.37
2018-01-05T20:39:16.910Z,71.28
2018-01-05T20:40:16.855Z,71.85
2018-01-05T20:42:09.806Z,72.14
2018-01-05T20:43:09.760Z,72.14
2018-01-05T20:45:02.742Z,72.05
2018-01-05T20:46:02.704Z,72.14
2018-01-05T20:47:55.522Z,71.76
2018-01-05T20:48:55.496Z,71.56
2018-01-05T20:50:48.614Z,72.14
2018-01-05T20:51:48.433Z,71.95
2018-01-05T20:53:41.399Z,72.05
2018-01-05T20:54:41.393Z,71.95
2018-01-05T20:56:34.410Z,71.95
2018-01-05T20:57:34.339Z,72.01
2018-01-05T20:59:27.278Z,71.66
2018-01-05T21:00:27.252Z,72.14
2018-01-05T21:02:20.240Z,71.95
2018-01-05T21:03:20.185Z,71.76
2018-01-05T21:05:13.146Z,71.95
2018-01-05T21:06:13.219Z,72.14
2018-01-05T21:08:05.945Z,71.95
2018-01-05T21:09:05.927Z,72.53
2018-01-05T21:10:58.785Z,72.53
2018-01-05T21:11:58.695Z,72.53
2018-01-05T21:13:51.667Z,72.43
2018-01-05T21:14:51.635Z,72.24
2018-01-05T21:16:44.679Z,72.33
2018-01-05T21:17:44.570Z,72.59
2018-01-05T21:19:37.786Z,72.81
2018-01-05T21:20:37.727Z,72.72
2018-01-05T21:22:30.706Z,72.63
2018-01-05T21:23:30.666Z,73.30
2018-01-05T21:25:23.664Z,73.01
2018-01-05T21:26:23.641Z,73.01
2018-01-05T21:28:16.473Z,72.59
2018-01-05T21:29:16.436Z,72.91
2018-01-05T21:31:09.430Z,73.01
2018-01-05T21:32:09.399Z,73.39
2018-01-05T21:34:02.353Z,73.30
2018-01-05T21:35:02.330Z,73.30
2018-01-05T21:36:55.507Z,73.26
2018-01-05T21:37:55.309Z,73.07
2018-01-05T21:39:48.275Z,73.26
2018-01-05T21:40:48.244Z,73.30
2018-01-05T21:42:41.079Z,72.97
2018-01-05T21:43:41.025Z,73.39
2018-01-05T21:45:33.973Z,73.30
2018-01-05T21:46:33.945Z,73.16
2018-01-05T21:48:26.901Z,73.36
2018-01-05T21:49:26.774Z,73.36
2018-01-05T21:51:19.754Z,73.26
2018-01-05T21:52:19.721Z,73.16
2018-01-05T21:54:12.573Z,73.36
2018-01-05T21:55:12.528Z,73.36
2018-01-05T21:57:05.500Z,73.16
2018-01-05T21:58:05.455Z,73.16
2018-01-05T21:59:58.299Z,73.16
2018-01-05T22:00:58.246Z,73.36
2018-01-05T22:02:51.234Z,73.26
2018-01-05T22:03:51.205Z,73.26
2018-01-05T22:05:44.234Z,73.26
2018-01-05T22:06:44.163Z,73.26
2018-01-05T22:08:37.344Z,73.46
2018-01-05T22:09:37.215Z,73.46
2018-01-05T22:11:30.209Z,73.16
2018-01-05T22:12:30.179Z,73.46
2018-01-05T22:14:23.179Z,72.97
2018-01-05T22:15:23.104Z,73.26
2018-01-05T22:17:15.934Z,73.36
2018-01-05T22:18:15.923Z,73.46
2018-01-05T22:20:08.878Z,72.97
2018-01-05T22:21:08.870Z,72.59
2018-01-05T22:23:01.925Z,73.16
2018-01-05T22:24:01.910Z,72.97
2018-01-05T22:25:54.744Z,72.97
2018-01-05T22:26:54.698Z,72.78
2018-01-05T22:28:47.689Z,72.97
2018-01-05T22:29:47.640Z,72.97
2018-01-05T22:31:40.619Z,72.88
2018-01-05T22:32:40.569Z,72.97
2018-01-05T22:34:33.536Z,72.78
2018-01-05T22:35:33.525Z,72.88
2018-01-05T22:37:26.342Z,72.59
2018-01-05T22:38:26.304Z,72.78
2018-01-05T22:40:19.334Z,72.68
2018-01-05T22:41:19.242Z,72.68
2018-01-05T22:43:12.224Z,72.68
2018-01-05T22:44:12.197Z,72.88
2018-01-05T22:46:05.502Z,72.68
2018-01-05T22:47:05.470Z,72.59
2018-01-05T22:48:58.415Z,72.49
2018-01-05T22:49:58.414Z,72.78
2018-01-05T22:51:51.616Z,72.78
2018-01-05T22:52:51.565Z,72.59
2018-01-05T22:54:44.566Z,72.78
2018-01-05T22:55:44.550Z,72.78
2018-01-05T22:57:37.784Z,72.78
2018-01-05T22:58:37.713Z,72.78
2018-01-05T23:00:30.530Z,72.59
2018-01-05T23:01:30.462Z,72.78
2018-01-05T23:03:23.463Z,72.68
2018-01-05T23:04:23.411Z,72.59
2018-01-05T23:06:16.703Z,72.39
2018-01-05T23:07:16.514Z,72.68
2018-01-05T23:09:09.485Z,72.30
2018-01-05T23:10:09.436Z,72.39
2018-01-05T23:12:02.380Z,72.68
2018-01-05T23:13:02.345Z,72.74
2018-01-05T23:14:55.629Z,72.84
2018-01-05T23:15:55.583Z,72.74
2018-01-05T23:17:48.545Z,72.97
2018-01-05T23:18:48.595Z,72.30
2018-01-05T23:20:41.347Z,72.17
2018-01-05T23:21:41.305Z,71.97
2018-01-05T23:23:34.195Z,72.36
2018-01-05T23:24:34.131Z,72.07
2018-01-05T23:26:27.146Z,71.97
2018-01-05T23:27:27.091Z,72.26
2018-01-05T23:29:19.908Z,71.78
2018-01-05T23:30:19.906Z,71.88
2018-01-05T23:32:12.834Z,71.97
2018-01-05T23:33:12.799Z,71.97
2018-01-05T23:35:05.649Z,71.97
2018-01-05T23:36:05.606Z,72.26
2018-01-05T23:37:58.555Z,71.97
2018-01-05T23:38:58.526Z,71.40
2018-01-05T23:40:51.495Z,71.40
2018-01-05T23:41:51.458Z,71.40
2018-01-05T23:43:44.753Z,71.30
2018-01-05T23:44:44.568Z,71.49
2018-01-05T23:46:37.556Z,71.20
2018-01-05T23:47:37.509Z,71.30
2018-01-05T23:49:30.473Z,71.40
2018-01-05T23:50:30.434Z,71.40
2018-01-05T23:52:23.284Z,71.30
2018-01-05T23:53:23.228Z,71.20
2018-01-05T23:55:16.251Z,71.49
2018-01-05T23:56:16.187Z,71.40
2018-01-05T23:58:09.145Z,71.01
2018-01-05T23:59:09.116Z,71.01
